sensor_id;sensor_type;location;lat;lon;timestamp;P1;durP1;ratioP1;P2;durP2;ratioP2
74108;SDS011;62466;47.566;7.786;2023-02-04T00:01:22;2.10;;;2.00;;
74108;SDS011;62466;47.566;7.786;2023-02-04T00:03:48;2.67;;;2.10;;
74108;SDS011;62466;47.566;7.786;2023-02-04T00:06:14;2.60;;;2.40;;
74108;SDS011;62466;47.566;7.786;2023-02-04T00:08:39;2.47;;;2.30;;
74108;SDS011;62466;47.566;7.786;2023-02-04T00:11:05;2.53;;;2.33;;
74108;SDS011;62466;47.566;7.786;2023-02-04T00:13:30;2.67;;;2.50;;
74108;SDS011;62466;47.566;7.786;2023-02-04T00:15:56;2.72;;;2.40;;
74108;SDS011;62466;47.566;7.786;2023-02-04T00:18:22;2.30;;;2.20;;
74108;SDS011;62466;47.566;7.786;2023-02-04T00:20:47;2.33;;;2.22;;
74108;SDS011;62466;47.566;7.786;2023-02-04T00:23:13;3.50;;;2.72;;
74108;SDS011;62466;47.566;7.786;2023-02-04T00:25:38;3.75;;;2.45;;
74108;SDS011;62466;47.566;7.786;2023-02-04T00:28:03;3.17;;;2.70;;
74108;SDS011;62466;47.566;7.786;2023-02-04T00:30:30;3.30;;;2.85;;
74108;SDS011;62466;47.566;7.786;2023-02-04T00:32:56;2.60;;;2.40;;
74108;SDS011;62466;47.566;7.786;2023-02-04T00:35:22;2.65;;;2.42;;
74108;SDS011;62466;47.566;7.786;2023-02-04T00:37:48;3.67;;;2.30;;
74108;SDS011;62466;47.566;7.786;2023-02-04T00:40:14;2.70;;;2.50;;
74108;SDS011;62466;47.566;7.786;2023-02-04T00:42:40;2.75;;;2.53;;
74108;SDS011;62466;47.566;7.786;2023-02-04T00:45:05;2.42;;;2.22;;
74108;SDS011;62466;47.566;7.786;2023-02-04T00:47:31;2.72;;;2.53;;
74108;SDS011;62466;47.566;7.786;2023-02-04T00:49:57;2.70;;;2.50;;
74108;SDS011;62466;47.566;7.786;2023-02-04T00:52:22;3.28;;;2.42;;
74108;SDS011;62466;47.566;7.786;2023-02-04T00:54:48;2.70;;;2.50;;
74108;SDS011;62466;47.566;7.786;2023-02-04T00:57:13;2.40;;;2.30;;
74108;SDS011;62466;47.566;7.786;2023-02-04T00:59:39;2.88;;;2.60;;
74108;SDS011;62466;47.566;7.786;2023-02-04T01:02:05;2.58;;;2.30;;
74108;SDS011;62466;47.566;7.786;2023-02-04T01:04:30;2.17;;;2.08;;
74108;SDS011;62466;47.566;7.786;2023-02-04T01:06:56;2.28;;;2.17;;
74108;SDS011;62466;47.566;7.786;2023-02-04T01:09:22;2.25;;;2.08;;
74108;SDS011;62466;47.566;7.786;2023-02-04T01:11:48;2.65;;;2.55;;
74108;SDS011;62466;47.566;7.786;2023-02-04T01:14:13;3.05;;;2.85;;
74108;SDS011;62466;47.566;7.786;2023-02-04T01:16:39;2.70;;;2.60;;
74108;SDS011;62466;47.566;7.786;2023-02-04T01:19:04;2.55;;;2.45;;
74108;SDS011;62466;47.566;7.786;2023-02-04T01:21:30;2.30;;;2.20;;
74108;SDS011;62466;47.566;7.786;2023-02-04T01:23:56;2.42;;;2.22;;
74108;SDS011;62466;47.566;7.786;2023-02-04T01:26:21;2.60;;;2.40;;
74108;SDS011;62466;47.566;7.786;2023-02-04T01:28:47;2.55;;;2.38;;
74108;SDS011;62466;47.566;7.786;2023-02-04T01:31:13;2.40;;;2.20;;
74108;SDS011;62466;47.566;7.786;2023-02-04T01:33:39;2.28;;;2.13;;
74108;SDS011;62466;47.566;7.786;2023-02-04T01:36:04;2.55;;;2.40;;
74108;SDS011;62466;47.566;7.786;2023-02-04T01:38:30;2.42;;;2.22;;
74108;SDS011;62466;47.566;7.786;2023-02-04T01:40:56;2.35;;;2.10;;
74108;SDS011;62466;47.566;7.786;2023-02-04T01:43:22;3.72;;;2.33;;
74108;SDS011;62466;47.566;7.786;2023-02-04T01:45:48;2.20;;;2.10;;
74108;SDS011;62466;47.566;7.786;2023-02-04T01:48:15;2.15;;;2.05;;
74108;SDS011;62466;47.566;7.786;2023-02-04T01:50:56;3.15;;;2.15;;
74108;SDS011;62466;47.566;7.786;2023-02-04T01:53:33;2.22;;;2.10;;
74108;SDS011;62466;47.566;7.786;2023-02-04T01:55:59;2.60;;;2.20;;
74108;SDS011;62466;47.566;7.786;2023-02-04T01:58:24;2.13;;;2.03;;
74108;SDS011;62466;47.566;7.786;2023-02-04T02:00:50;2.17;;;2.05;;
74108;SDS011;62466;47.566;7.786;2023-02-04T02:03:15;3.10;;;2.80;;
74108;SDS011;62466;47.566;7.786;2023-02-04T02:08:11;2.47;;;2.28;;
74108;SDS011;62466;47.566;7.786;2023-02-04T02:10:38;2.40;;;2.30;;
74108;SDS011;62466;47.566;7.786;2023-02-04T02:13:05;3.40;;;3.10;;
74108;SDS011;62466;47.566;7.786;2023-02-04T02:18:02;2.40;;;2.20;;
74108;SDS011;62466;47.566;7.786;2023-02-04T02:20:27;1.92;;;1.83;;
74108;SDS011;62466;47.566;7.786;2023-02-04T02:22:59;2.50;;;2.15;;
74108;SDS011;62466;47.566;7.786;2023-02-04T02:25:27;2.50;;;2.30;;
74108;SDS011;62466;47.566;7.786;2023-02-04T02:27:53;2.20;;;2.10;;
74108;SDS011;62466;47.566;7.786;2023-02-04T02:30:19;2.00;;;1.90;;
74108;SDS011;62466;47.566;7.786;2023-02-04T02:32:45;2.70;;;2.50;;
74108;SDS011;62466;47.566;7.786;2023-02-04T02:35:12;2.58;;;2.33;;
74108;SDS011;62466;47.566;7.786;2023-02-04T02:37:38;2.50;;;2.40;;
74108;SDS011;62466;47.566;7.786;2023-02-04T02:40:04;2.33;;;2.20;;
74108;SDS011;62466;47.566;7.786;2023-02-04T02:42:30;2.70;;;2.50;;
74108;SDS011;62466;47.566;7.786;2023-02-04T02:44:56;2.92;;;2.72;;
74108;SDS011;62466;47.566;7.786;2023-02-04T02:47:22;2.67;;;2.58;;
74108;SDS011;62466;47.566;7.786;2023-02-04T02:49:49;2.22;;;2.13;;
74108;SDS011;62466;47.566;7.786;2023-02-04T02:52:16;2.70;;;2.50;;
74108;SDS011;62466;47.566;7.786;2023-02-04T02:54:41;2.47;;;2.28;;
74108;SDS011;62466;47.566;7.786;2023-02-04T02:57:10;3.97;;;2.40;;
74108;SDS011;62466;47.566;7.786;2023-02-04T02:59:38;5.32;;;2.50;;
74108;SDS011;62466;47.566;7.786;2023-02-04T03:02:03;2.35;;;2.22;;
74108;SDS011;62466;47.566;7.786;2023-02-04T03:04:33;2.53;;;2.40;;
74108;SDS011;62466;47.566;7.786;2023-02-04T03:07:02;2.40;;;2.30;;
74108;SDS011;62466;47.566;7.786;2023-02-04T03:09:28;2.70;;;2.50;;
74108;SDS011;62466;47.566;7.786;2023-02-04T03:11:53;2.70;;;2.50;;
74108;SDS011;62466;47.566;7.786;2023-02-04T03:14:20;3.17;;;2.90;;
74108;SDS011;62466;47.566;7.786;2023-02-04T03:16:47;2.25;;;2.15;;
74108;SDS011;62466;47.566;7.786;2023-02-04T03:19:13;2.30;;;2.20;;
74108;SDS011;62466;47.566;7.786;2023-02-04T03:21:38;2.80;;;2.60;;
74108;SDS011;62466;47.566;7.786;2023-02-04T03:24:05;2.75;;;2.55;;
74108;SDS011;62466;47.566;7.786;2023-02-04T03:26:30;2.85;;;2.65;;
74108;SDS011;62466;47.566;7.786;2023-02-04T03:28:56;2.70;;;2.60;;
74108;SDS011;62466;47.566;7.786;2023-02-04T03:31:23;2.80;;;2.50;;
74108;SDS011;62466;47.566;7.786;2023-02-04T03:33:49;2.70;;;2.50;;
74108;SDS011;62466;47.566;7.786;2023-02-04T03:36:14;2.20;;;2.10;;
74108;SDS011;62466;47.566;7.786;2023-02-04T03:38:40;2.55;;;2.35;;
74108;SDS011;62466;47.566;7.786;2023-02-04T03:41:05;2.40;;;2.20;;
74108;SDS011;62466;47.566;7.786;2023-02-04T03:43:31;2.33;;;2.20;;
74108;SDS011;62466;47.566;7.786;2023-02-04T03:45:56;2.88;;;2.67;;
74108;SDS011;62466;47.566;7.786;2023-02-04T03:48:22;2.83;;;2.63;;
74108;SDS011;62466;47.566;7.786;2023-02-04T03:50:47;2.90;;;2.70;;
74108;SDS011;62466;47.566;7.786;2023-02-04T03:53:12;3.42;;;3.03;;
74108;SDS011;62466;47.566;7.786;2023-02-04T03:55:38;3.00;;;2.70;;
74108;SDS011;62466;47.566;7.786;2023-02-04T03:58:03;3.05;;;2.83;;
74108;SDS011;62466;47.566;7.786;2023-02-04T04:00:30;2.90;;;2.70;;
74108;SDS011;62466;47.566;7.786;2023-02-04T04:02:57;2.60;;;2.50;;
74108;SDS011;62466;47.566;7.786;2023-02-04T04:05:22;2.50;;;2.40;;
74108;SDS011;62466;47.566;7.786;2023-02-04T04:07:48;2.72;;;2.53;;
74108;SDS011;62466;47.566;7.786;2023-02-04T04:10:14;2.70;;;2.50;;
74108;SDS011;62466;47.566;7.786;2023-02-04T04:12:40;2.85;;;2.65;;
74108;SDS011;62466;47.566;7.786;2023-02-04T04:15:05;2.95;;;2.67;;
74108;SDS011;62466;47.566;7.786;2023-02-04T04:17:31;3.45;;;2.30;;
74108;SDS011;62466;47.566;7.786;2023-02-04T04:19:56;2.90;;;2.70;;
74108;SDS011;62466;47.566;7.786;2023-02-04T04:22:22;3.75;;;2.30;;
74108;SDS011;62466;47.566;7.786;2023-02-04T04:24:47;2.83;;;2.63;;
74108;SDS011;62466;47.566;7.786;2023-02-04T04:27:13;3.60;;;2.50;;
74108;SDS011;62466;47.566;7.786;2023-02-04T04:29:38;2.88;;;2.67;;
74108;SDS011;62466;47.566;7.786;2023-02-04T04:32:04;3.03;;;2.83;;
74108;SDS011;62466;47.566;7.786;2023-02-04T04:34:29;3.08;;;2.88;;
74108;SDS011;62466;47.566;7.786;2023-02-04T04:36:55;2.88;;;2.60;;
74108;SDS011;62466;47.566;7.786;2023-02-04T04:39:21;3.03;;;2.83;;
74108;SDS011;62466;47.566;7.786;2023-02-04T04:41:46;3.42;;;3.13;;
74108;SDS011;62466;47.566;7.786;2023-02-04T04:44:13;4.50;;;2.78;;
74108;SDS011;62466;47.566;7.786;2023-02-04T04:46:38;2.55;;;2.35;;
74108;SDS011;62466;47.566;7.786;2023-02-04T04:49:05;3.45;;;3.15;;
74108;SDS011;62466;47.566;7.786;2023-02-04T04:51:31;3.55;;;2.55;;
74108;SDS011;62466;47.566;7.786;2023-02-04T04:53:57;4.63;;;2.75;;
74108;SDS011;62466;47.566;7.786;2023-02-04T04:56:23;3.47;;;3.17;;
74108;SDS011;62466;47.566;7.786;2023-02-04T04:58:48;2.28;;;2.17;;
74108;SDS011;62466;47.566;7.786;2023-02-04T05:01:14;3.65;;;3.17;;
74108;SDS011;62466;47.566;7.786;2023-02-04T05:03:39;2.40;;;2.30;;
74108;SDS011;62466;47.566;7.786;2023-02-04T05:06:05;3.22;;;2.75;;
74108;SDS011;62466;47.566;7.786;2023-02-04T05:08:30;3.03;;;2.83;;
74108;SDS011;62466;47.566;7.786;2023-02-04T05:10:56;2.90;;;2.40;;
74108;SDS011;62466;47.566;7.786;2023-02-04T05:13:21;3.20;;;2.83;;
74108;SDS011;62466;47.566;7.786;2023-02-04T05:15:49;3.13;;;2.83;;
74108;SDS011;62466;47.566;7.786;2023-02-04T05:18:14;2.95;;;2.75;;
74108;SDS011;62466;47.566;7.786;2023-02-04T05:20:40;2.88;;;2.67;;
74108;SDS011;62466;47.566;7.786;2023-02-04T05:23:05;3.67;;;3.38;;
74108;SDS011;62466;47.566;7.786;2023-02-04T05:25:31;4.30;;;3.50;;
74108;SDS011;62466;47.566;7.786;2023-02-04T05:27:56;4.45;;;3.33;;
74108;SDS011;62466;47.566;7.786;2023-02-04T05:30:22;3.40;;;3.10;;
74108;SDS011;62466;47.566;7.786;2023-02-04T05:32:47;5.55;;;3.20;;
74108;SDS011;62466;47.566;7.786;2023-02-04T05:35:14;3.15;;;2.88;;
74108;SDS011;62466;47.566;7.786;2023-02-04T05:37:39;4.35;;;3.95;;
74108;SDS011;62466;47.566;7.786;2023-02-04T05:40:05;8.32;;;5.00;;
74108;SDS011;62466;47.566;7.786;2023-02-04T05:42:31;8.30;;;5.53;;
74108;SDS011;62466;47.566;7.786;2023-02-04T05:44:57;7.05;;;5.30;;
74108;SDS011;62466;47.566;7.786;2023-02-04T05:47:22;6.22;;;4.45;;
74108;SDS011;62466;47.566;7.786;2023-02-04T05:49:48;5.80;;;4.65;;
74108;SDS011;62466;47.566;7.786;2023-02-04T05:52:13;6.05;;;4.20;;
74108;SDS011;62466;47.566;7.786;2023-02-04T05:54:39;5.22;;;4.68;;
74108;SDS011;62466;47.566;7.786;2023-02-04T05:57:04;5.72;;;4.53;;
74108;SDS011;62466;47.566;7.786;2023-02-04T05:59:30;6.82;;;5.38;;
74108;SDS011;62466;47.566;7.786;2023-02-04T06:01:56;6.72;;;4.90;;
74108;SDS011;62466;47.566;7.786;2023-02-04T06:04:21;6.00;;;4.68;;
74108;SDS011;62466;47.566;7.786;2023-02-04T06:06:47;6.40;;;4.10;;
74108;SDS011;62466;47.566;7.786;2023-02-04T06:09:12;4.63;;;4.22;;
74108;SDS011;62466;47.566;7.786;2023-02-04T06:11:38;4.80;;;4.30;;
74108;SDS011;62466;47.566;7.786;2023-02-04T06:14:03;5.50;;;5.00;;
74108;SDS011;62466;47.566;7.786;2023-02-04T06:16:29;5.40;;;4.90;;
74108;SDS011;62466;47.566;7.786;2023-02-04T06:18:54;6.97;;;5.40;;
74108;SDS011;62466;47.566;7.786;2023-02-04T06:21:20;5.72;;;5.20;;
74108;SDS011;62466;47.566;7.786;2023-02-04T06:23:45;5.82;;;5.00;;
74108;SDS011;62466;47.566;7.786;2023-02-04T06:26:11;5.78;;;4.53;;
74108;SDS011;62466;47.566;7.786;2023-02-04T06:28:36;6.32;;;5.13;;
74108;SDS011;62466;47.566;7.786;2023-02-04T06:31:02;6.10;;;5.50;;
74108;SDS011;62466;47.566;7.786;2023-02-04T06:33:27;6.70;;;5.43;;
74108;SDS011;62466;47.566;7.786;2023-02-04T06:35:53;6.07;;;5.53;;
74108;SDS011;62466;47.566;7.786;2023-02-04T06:38:18;9.02;;;6.05;;
74108;SDS011;62466;47.566;7.786;2023-02-04T06:40:44;7.00;;;5.75;;
74108;SDS011;62466;47.566;7.786;2023-02-04T06:43:14;7.65;;;5.60;;
74108;SDS011;62466;47.566;7.786;2023-02-04T06:45:39;6.00;;;5.40;;
74108;SDS011;62466;47.566;7.786;2023-02-04T06:48:05;6.25;;;5.47;;
74108;SDS011;62466;47.566;7.786;2023-02-04T06:50:31;5.18;;;4.68;;
74108;SDS011;62466;47.566;7.786;2023-02-04T06:52:56;5.97;;;4.93;;
74108;SDS011;62466;47.566;7.786;2023-02-04T06:55:21;5.90;;;4.90;;
74108;SDS011;62466;47.566;7.786;2023-02-04T06:57:47;5.78;;;5.10;;
74108;SDS011;62466;47.566;7.786;2023-02-04T07:00:12;5.32;;;4.55;;
74108;SDS011;62466;47.566;7.786;2023-02-04T07:02:39;5.68;;;5.15;;
74108;SDS011;62466;47.566;7.786;2023-02-04T07:05:04;5.93;;;4.80;;
74108;SDS011;62466;47.566;7.786;2023-02-04T07:07:30;5.43;;;4.85;;
74108;SDS011;62466;47.566;7.786;2023-02-04T07:09:56;5.35;;;4.78;;
74108;SDS011;62466;47.566;7.786;2023-02-04T07:12:21;6.13;;;5.25;;
74108;SDS011;62466;47.566;7.786;2023-02-04T07:14:47;7.13;;;5.90;;
74108;SDS011;62466;47.566;7.786;2023-02-04T07:17:12;5.85;;;5.20;;
74108;SDS011;62466;47.566;7.786;2023-02-04T07:19:38;11.63;;;6.50;;
74108;SDS011;62466;47.566;7.786;2023-02-04T07:22:04;8.65;;;7.35;;
74108;SDS011;62466;47.566;7.786;2023-02-04T07:24:29;11.52;;;7.40;;
74108;SDS011;62466;47.566;7.786;2023-02-04T07:26:55;11.73;;;7.85;;
74108;SDS011;62466;47.566;7.786;2023-02-04T07:29:21;11.70;;;7.20;;
74108;SDS011;62466;47.566;7.786;2023-02-04T07:31:46;9.35;;;6.70;;
74108;SDS011;62466;47.566;7.786;2023-02-04T07:34:15;7.05;;;6.35;;
74108;SDS011;62466;47.566;7.786;2023-02-04T07:36:41;6.88;;;4.80;;
74108;SDS011;62466;47.566;7.786;2023-02-04T07:39:06;6.78;;;5.95;;
74108;SDS011;62466;47.566;7.786;2023-02-04T07:41:32;6.22;;;5.35;;
74108;SDS011;62466;47.566;7.786;2023-02-04T07:43:58;6.45;;;5.45;;
74108;SDS011;62466;47.566;7.786;2023-02-04T07:46:23;7.80;;;5.18;;
74108;SDS011;62466;47.566;7.786;2023-02-04T07:48:49;7.18;;;4.78;;
74108;SDS011;62466;47.566;7.786;2023-02-04T07:51:14;6.20;;;5.30;;
74108;SDS011;62466;47.566;7.786;2023-02-04T07:53:39;6.05;;;5.13;;
74108;SDS011;62466;47.566;7.786;2023-02-04T07:56:05;5.95;;;4.65;;
74108;SDS011;62466;47.566;7.786;2023-02-04T07:58:30;6.18;;;5.03;;
74108;SDS011;62466;47.566;7.786;2023-02-04T08:00:56;7.57;;;5.65;;
74108;SDS011;62466;47.566;7.786;2023-02-04T08:03:21;9.13;;;6.00;;
74108;SDS011;62466;47.566;7.786;2023-02-04T08:05:46;6.43;;;5.40;;
74108;SDS011;62466;47.566;7.786;2023-02-04T08:08:12;6.85;;;4.95;;
74108;SDS011;62466;47.566;7.786;2023-02-04T08:10:37;4.63;;;4.22;;
74108;SDS011;62466;47.566;7.786;2023-02-04T08:13:03;7.03;;;4.75;;
74108;SDS011;62466;47.566;7.786;2023-02-04T08:15:28;6.63;;;5.85;;
74108;SDS011;62466;47.566;7.786;2023-02-04T08:17:54;7.72;;;6.65;;
74108;SDS011;62466;47.566;7.786;2023-02-04T08:20:19;6.63;;;5.65;;
74108;SDS011;62466;47.566;7.786;2023-02-04T08:22:45;9.48;;;7.18;;
74108;SDS011;62466;47.566;7.786;2023-02-04T08:25:11;8.98;;;7.03;;
74108;SDS011;62466;47.566;7.786;2023-02-04T08:27:37;14.38;;;7.93;;
74108;SDS011;62466;47.566;7.786;2023-02-04T08:30:03;20.02;;;10.18;;
74108;SDS011;62466;47.566;7.786;2023-02-04T08:32:44;17.60;;;10.45;;
74108;SDS011;62466;47.566;7.786;2023-02-04T08:35:10;16.05;;;8.32;;
74108;SDS011;62466;47.566;7.786;2023-02-04T08:37:38;13.95;;;7.30;;
74108;SDS011;62466;47.566;7.786;2023-02-04T08:40:49;10.60;;;6.30;;
74108;SDS011;62466;47.566;7.786;2023-02-04T08:43:30;8.85;;;6.55;;
74108;SDS011;62466;47.566;7.786;2023-02-04T08:45:58;9.75;;;6.10;;
74108;SDS011;62466;47.566;7.786;2023-02-04T08:48:24;7.45;;;6.00;;
74108;SDS011;62466;47.566;7.786;2023-02-04T08:50:52;11.52;;;7.57;;
74108;SDS011;62466;47.566;7.786;2023-02-04T08:53:26;10.77;;;7.93;;
74108;SDS011;62466;47.566;7.786;2023-02-04T08:56:01;15.48;;;7.10;;
74108;SDS011;62466;47.566;7.786;2023-02-04T08:58:26;15.57;;;8.27;;
74108;SDS011;62466;47.566;7.786;2023-02-04T09:00:54;11.98;;;7.35;;
74108;SDS011;62466;47.566;7.786;2023-02-04T09:03:20;12.93;;;7.72;;
74108;SDS011;62466;47.566;7.786;2023-02-04T09:05:45;12.13;;;8.32;;
74108;SDS011;62466;47.566;7.786;2023-02-04T09:08:11;13.20;;;8.95;;
74108;SDS011;62466;47.566;7.786;2023-02-04T09:10:37;10.23;;;8.00;;
74108;SDS011;62466;47.566;7.786;2023-02-04T09:13:02;8.70;;;7.20;;
74108;SDS011;62466;47.566;7.786;2023-02-04T09:15:28;9.25;;;7.00;;
74108;SDS011;62466;47.566;7.786;2023-02-04T09:17:53;9.60;;;7.72;;
74108;SDS011;62466;47.566;7.786;2023-02-04T09:22:50;9.50;;;6.50;;
74108;SDS011;62466;47.566;7.786;2023-02-04T09:25:16;8.10;;;5.80;;
74108;SDS011;62466;47.566;7.786;2023-02-04T09:27:41;9.65;;;6.47;;
74108;SDS011;62466;47.566;7.786;2023-02-04T09:30:09;8.48;;;7.10;;
74108;SDS011;62466;47.566;7.786;2023-02-04T09:32:35;11.38;;;6.45;;
74108;SDS011;62466;47.566;7.786;2023-02-04T09:35:00;9.88;;;6.93;;
74108;SDS011;62466;47.566;7.786;2023-02-04T09:37:26;10.52;;;6.88;;
74108;SDS011;62466;47.566;7.786;2023-02-04T09:39:53;12.10;;;7.07;;
74108;SDS011;62466;47.566;7.786;2023-02-04T09:42:18;7.82;;;6.20;;
74108;SDS011;62466;47.566;7.786;2023-02-04T09:44:46;7.88;;;6.78;;
74108;SDS011;62466;47.566;7.786;2023-02-04T09:47:31;7.55;;;5.95;;
74108;SDS011;62466;47.566;7.786;2023-02-04T09:50:04;8.85;;;6.20;;
74108;SDS011;62466;47.566;7.786;2023-02-04T09:53:31;9.63;;;6.32;;
74108;SDS011;62466;47.566;7.786;2023-02-04T09:56:57;10.38;;;6.70;;
74108;SDS011;62466;47.566;7.786;2023-02-04T10:00:16;10.85;;;7.03;;
74108;SDS011;62466;47.566;7.786;2023-02-04T10:02:49;9.02;;;6.82;;
74108;SDS011;62466;47.566;7.786;2023-02-04T10:05:18;13.20;;;7.80;;
74108;SDS011;62466;47.566;7.786;2023-02-04T10:08:28;14.43;;;7.78;;
74108;SDS011;62466;47.566;7.786;2023-02-04T10:11:33;27.88;;;12.52;;
74108;SDS011;62466;47.566;7.786;2023-02-04T10:14:12;29.75;;;12.57;;
74108;SDS011;62466;47.566;7.786;2023-02-04T10:16:59;22.65;;;10.27;;
74108;SDS011;62466;47.566;7.786;2023-02-04T10:19:39;13.18;;;8.02;;
74108;SDS011;62466;47.566;7.786;2023-02-04T10:22:20;13.95;;;8.88;;
74108;SDS011;62466;47.566;7.786;2023-02-04T10:24:55;15.30;;;8.40;;
74108;SDS011;62466;47.566;7.786;2023-02-04T10:27:47;19.75;;;11.35;;
74108;SDS011;62466;47.566;7.786;2023-02-04T10:30:23;11.88;;;8.05;;
74108;SDS011;62466;47.566;7.786;2023-02-04T10:32:59;25.65;;;12.77;;
74108;SDS011;62466;47.566;7.786;2023-02-04T10:36:11;13.27;;;7.15;;
74108;SDS011;62466;47.566;7.786;2023-02-04T10:38:37;8.48;;;6.55;;
74108;SDS011;62466;47.566;7.786;2023-02-04T10:41:11;7.38;;;5.82;;
74108;SDS011;62466;47.566;7.786;2023-02-04T10:44:04;7.25;;;6.53;;
74108;SDS011;62466;47.566;7.786;2023-02-04T10:47:26;7.93;;;5.75;;
74108;SDS011;62466;47.566;7.786;2023-02-04T10:52:36;9.65;;;5.97;;
74108;SDS011;62466;47.566;7.786;2023-02-04T10:55:07;7.10;;;5.28;;
74108;SDS011;62466;47.566;7.786;2023-02-04T10:57:48;11.27;;;5.78;;
74108;SDS011;62466;47.566;7.786;2023-02-04T11:03:04;9.55;;;7.07;;
74108;SDS011;62466;47.566;7.786;2023-02-04T11:05:34;7.97;;;6.13;;
74108;SDS011;62466;47.566;7.786;2023-02-04T11:08:00;7.80;;;5.85;;
74108;SDS011;62466;47.566;7.786;2023-02-04T11:10:36;7.65;;;6.05;;
74108;SDS011;62466;47.566;7.786;2023-02-04T11:13:19;10.35;;;6.35;;
74108;SDS011;62466;47.566;7.786;2023-02-04T11:15:54;10.18;;;6.65;;
74108;SDS011;62466;47.566;7.786;2023-02-04T11:18:48;6.93;;;5.38;;
74108;SDS011;62466;47.566;7.786;2023-02-04T11:26:43;8.07;;;5.32;;
74108;SDS011;62466;47.566;7.786;2023-02-04T11:29:23;8.98;;;5.53;;
74108;SDS011;62466;47.566;7.786;2023-02-04T11:34:25;12.98;;;7.03;;
74108;SDS011;62466;47.566;7.786;2023-02-04T11:37:59;8.13;;;5.05;;
74108;SDS011;62466;47.566;7.786;2023-02-04T11:41:11;6.78;;;5.10;;
74108;SDS011;62466;47.566;7.786;2023-02-04T11:44:09;11.95;;;6.43;;
74108;SDS011;62466;47.566;7.786;2023-02-04T11:46:56;15.68;;;6.25;;
74108;SDS011;62466;47.566;7.786;2023-02-04T11:55:47;14.20;;;6.55;;
74108;SDS011;62466;47.566;7.786;2023-02-04T12:05:18;4.63;;;4.18;;
74108;SDS011;62466;47.566;7.786;2023-02-04T12:07:45;5.40;;;4.20;;
74108;SDS011;62466;47.566;7.786;2023-02-04T12:10:24;5.18;;;4.28;;
74108;SDS011;62466;47.566;7.786;2023-02-04T12:12:54;4.32;;;3.88;;
74108;SDS011;62466;47.566;7.786;2023-02-04T12:15:23;4.43;;;4.03;;
74108;SDS011;62466;47.566;7.786;2023-02-04T12:18:02;5.38;;;4.20;;
74108;SDS011;62466;47.566;7.786;2023-02-04T12:20:32;5.22;;;4.20;;
74108;SDS011;62466;47.566;7.786;2023-02-04T12:22:58;7.05;;;4.78;;
74108;SDS011;62466;47.566;7.786;2023-02-04T12:25:24;7.63;;;4.35;;
74108;SDS011;62466;47.566;7.786;2023-02-04T12:27:51;4.00;;;3.67;;
74108;SDS011;62466;47.566;7.786;2023-02-04T12:30:19;5.22;;;4.35;;
74108;SDS011;62466;47.566;7.786;2023-02-04T12:32:46;5.72;;;4.63;;
74108;SDS011;62466;47.566;7.786;2023-02-04T12:35:14;6.15;;;4.03;;
74108;SDS011;62466;47.566;7.786;2023-02-04T12:37:46;10.02;;;4.82;;
74108;SDS011;62466;47.566;7.786;2023-02-04T12:45:12;4.03;;;3.47;;
74108;SDS011;62466;47.566;7.786;2023-02-04T12:48:16;4.40;;;3.35;;
74108;SDS011;62466;47.566;7.786;2023-02-04T12:51:16;3.85;;;3.33;;
74108;SDS011;62466;47.566;7.786;2023-02-04T13:39:01;3.75;;;3.45;;
74108;SDS011;62466;47.566;7.786;2023-02-04T13:46:33;5.35;;;3.40;;
74108;SDS011;62466;47.566;7.786;2023-02-04T14:01:17;5.20;;;3.40;;
74108;SDS011;62466;47.566;7.786;2023-02-04T14:07:25;4.05;;;3.05;;
74108;SDS011;62466;47.566;7.786;2023-02-04T14:09:53;3.90;;;3.60;;
74108;SDS011;62466;47.566;7.786;2023-02-04T14:12:19;3.85;;;3.55;;
74108;SDS011;62466;47.566;7.786;2023-02-04T14:14:45;3.40;;;2.97;;
74108;SDS011;62466;47.566;7.786;2023-02-04T14:17:10;4.57;;;3.95;;
74108;SDS011;62466;47.566;7.786;2023-02-04T14:19:36;3.92;;;3.30;;
74108;SDS011;62466;47.566;7.786;2023-02-04T14:22:02;5.07;;;3.75;;
74108;SDS011;62466;47.566;7.786;2023-02-04T14:24:27;3.78;;;3.47;;
74108;SDS011;62466;47.566;7.786;2023-02-04T14:26:52;3.88;;;3.35;;
74108;SDS011;62466;47.566;7.786;2023-02-04T14:29:20;3.50;;;3.20;;
74108;SDS011;62466;47.566;7.786;2023-02-04T14:31:45;3.10;;;2.83;;
74108;SDS011;62466;47.566;7.786;2023-02-04T14:34:11;9.77;;;5.15;;
74108;SDS011;62466;47.566;7.786;2023-02-04T14:36:37;3.83;;;3.38;;
74108;SDS011;62466;47.566;7.786;2023-02-04T14:39:02;5.47;;;2.80;;
74108;SDS011;62466;47.566;7.786;2023-02-04T14:41:28;3.10;;;2.80;;
74108;SDS011;62466;47.566;7.786;2023-02-04T14:43:55;4.32;;;3.05;;
74108;SDS011;62466;47.566;7.786;2023-02-04T14:46:21;3.10;;;2.88;;
74108;SDS011;62466;47.566;7.786;2023-02-04T14:48:46;3.15;;;2.80;;
74108;SDS011;62466;47.566;7.786;2023-02-04T14:51:12;3.03;;;2.80;;
74108;SDS011;62466;47.566;7.786;2023-02-04T14:53:37;3.92;;;2.70;;
74108;SDS011;62466;47.566;7.786;2023-02-04T14:56:03;2.63;;;2.42;;
74108;SDS011;62466;47.566;7.786;2023-02-04T14:58:32;5.03;;;2.42;;
74108;SDS011;62466;47.566;7.786;2023-02-04T15:01:03;5.95;;;2.35;;
74108;SDS011;62466;47.566;7.786;2023-02-04T15:03:29;3.97;;;2.42;;
74108;SDS011;62466;47.566;7.786;2023-02-04T15:05:59;2.22;;;2.00;;
74108;SDS011;62466;47.566;7.786;2023-02-04T15:08:25;3.97;;;2.30;;
74108;SDS011;62466;47.566;7.786;2023-02-04T15:10:51;4.70;;;2.00;;
74108;SDS011;62466;47.566;7.786;2023-02-04T15:13:19;2.60;;;2.20;;
74108;SDS011;62466;47.566;7.786;2023-02-04T15:15:44;2.50;;;2.30;;
74108;SDS011;62466;47.566;7.786;2023-02-04T15:18:10;5.60;;;2.45;;
74108;SDS011;62466;47.566;7.786;2023-02-04T15:20:40;4.57;;;2.42;;
74108;SDS011;62466;47.566;7.786;2023-02-04T15:23:11;4.20;;;3.17;;
74108;SDS011;62466;47.566;7.786;2023-02-04T15:25:49;3.30;;;2.28;;
74108;SDS011;62466;47.566;7.786;2023-02-04T15:28:17;4.72;;;2.63;;
74108;SDS011;62466;47.566;7.786;2023-02-04T15:30:42;4.25;;;2.20;;
74108;SDS011;62466;47.566;7.786;2023-02-04T15:33:08;2.40;;;2.20;;
74108;SDS011;62466;47.566;7.786;2023-02-04T15:35:33;6.95;;;2.42;;
74108;SDS011;62466;47.566;7.786;2023-02-04T15:37:59;4.75;;;2.42;;
74108;SDS011;62466;47.566;7.786;2023-02-04T15:40:28;5.00;;;2.80;;
74108;SDS011;62466;47.566;7.786;2023-02-04T15:42:54;4.82;;;2.58;;
74108;SDS011;62466;47.566;7.786;2023-02-04T15:45:25;4.32;;;2.53;;
74108;SDS011;62466;47.566;7.786;2023-02-04T15:47:53;4.00;;;2.28;;
74108;SDS011;62466;47.566;7.786;2023-02-04T15:50:21;4.85;;;2.60;;
74108;SDS011;62466;47.566;7.786;2023-02-04T15:52:49;8.68;;;3.50;;
74108;SDS011;62466;47.566;7.786;2023-02-04T15:55:15;7.07;;;3.00;;
74108;SDS011;62466;47.566;7.786;2023-02-04T15:57:41;7.53;;;3.05;;
74108;SDS011;62466;47.566;7.786;2023-02-04T16:00:09;8.32;;;3.45;;
74108;SDS011;62466;47.566;7.786;2023-02-04T16:02:43;6.78;;;2.55;;
74108;SDS011;62466;47.566;7.786;2023-02-04T16:05:11;5.50;;;3.17;;
74108;SDS011;62466;47.566;7.786;2023-02-04T16:07:36;7.25;;;2.58;;
74108;SDS011;62466;47.566;7.786;2023-02-04T16:10:04;6.70;;;3.08;;
74108;SDS011;62466;47.566;7.786;2023-02-04T16:12:43;6.35;;;3.42;;
74108;SDS011;62466;47.566;7.786;2023-02-04T16:15:09;3.65;;;2.60;;
74108;SDS011;62466;47.566;7.786;2023-02-04T16:17:38;5.32;;;3.20;;
74108;SDS011;62466;47.566;7.786;2023-02-04T16:20:11;6.50;;;3.47;;
74108;SDS011;62466;47.566;7.786;2023-02-04T16:22:36;7.10;;;3.38;;
74108;SDS011;62466;47.566;7.786;2023-02-04T16:25:05;7.57;;;3.65;;
74108;SDS011;62466;47.566;7.786;2023-02-04T16:27:34;5.13;;;3.45;;
74108;SDS011;62466;47.566;7.786;2023-02-04T16:29:59;5.22;;;3.40;;
74108;SDS011;62466;47.566;7.786;2023-02-04T16:32:35;5.63;;;3.38;;
74108;SDS011;62466;47.566;7.786;2023-02-04T16:35:11;6.13;;;3.50;;
74108;SDS011;62466;47.566;7.786;2023-02-04T16:37:38;5.30;;;3.90;;
74108;SDS011;62466;47.566;7.786;2023-02-04T16:40:04;4.47;;;4.07;;
74108;SDS011;62466;47.566;7.786;2023-02-04T16:42:30;14.88;;;8.27;;